sensor_id;sensor_type;location;lat;lon;timestamp;pressure;altitude;pressure_sealevel;temperature;humidity
41688;BME280;27371;42.686;23.362;2023-02-22T00:00:13;164066.13;;;7.17;49.62
41688;BME280;27371;42.686;23.362;2023-02-22T00:02:49;164083.44;;;7.24;49.33
41688;BME280;27371;42.686;23.362;2023-02-22T00:05:16;164083.44;;;7.24;49.33
41688;BME280;27371;42.686;23.362;2023-02-22T00:07:45;164102.16;;;7.31;49.23
41688;BME280;27371;42.686;23.362;2023-02-22T00:10:13;164088.81;;;7.26;48.95
41688;BME280;27371;42.686;23.362;2023-02-22T00:12:41;164104.78;;;7.32;49.32
41688;BME280;27371;42.686;23.362;2023-02-22T00:15:08;164099.44;;;7.30;49.42
41688;BME280;27371;42.686;23.362;2023-02-22T00:17:34;164096.78;;;7.29;49.39
41688;BME280;27371;42.686;23.362;2023-02-22T00:20:00;164088.81;;;7.26;49.28
41688;BME280;27371;42.686;23.362;2023-02-22T00:22:25;164086.09;;;7.25;49.34
41688;BME280;27371;42.686;23.362;2023-02-22T00:24:51;164108.81;;;7.33;49.31
41688;BME280;27371;42.686;23.362;2023-02-22T00:27:16;164092.78;;;7.27;49.41
41688;BME280;27371;42.686;23.362;2023-02-22T00:29:45;164114.13;;;7.35;49.42
41688;BME280;27371;42.686;23.362;2023-02-22T00:32:11;164128.78;;;7.41;49.13
41688;BME280;27371;42.686;23.362;2023-02-22T00:34:37;164130.16;;;7.42;49.52
41688;BME280;27371;42.686;23.362;2023-02-22T00:37:02;164108.81;;;7.33;49.28
41688;BME280;27371;42.686;23.362;2023-02-22T00:39:29;164060.78;;;7.15;50.05
41688;BME280;27371;42.686;23.362;2023-02-22T00:41:55;163998.09;;;6.91;50.46
41688;BME280;27371;42.686;23.362;2023-02-22T00:44:20;163992.75;;;6.89;50.88
41688;BME280;27371;42.686;23.362;2023-02-22T00:46:46;163990.13;;;6.88;50.96
41688;BME280;27371;42.686;23.362;2023-02-22T00:49:12;163975.44;;;6.82;51.02
41688;BME280;27371;42.686;23.362;2023-02-22T00:51:37;164019.44;;;6.99;50.96
41688;BME280;27371;42.686;23.362;2023-02-22T00:54:03;164010.13;;;6.96;50.71
41688;BME280;27371;42.686;23.362;2023-02-22T00:56:31;164027.44;;;7.02;50.58
41688;BME280;27371;42.686;23.362;2023-02-22T00:58:58;164054.13;;;7.12;50.53
41688;BME280;27371;42.686;23.362;2023-02-22T01:04:00;164087.47;;;7.25;50.21
41688;BME280;27371;42.686;23.362;2023-02-22T01:06:25;164099.44;;;7.30;50.02
41688;BME280;27371;42.686;23.362;2023-02-22T01:08:51;164106.13;;;7.32;50.03
41688;BME280;27371;42.686;23.362;2023-02-22T01:11:16;164126.13;;;7.40;49.89
41688;BME280;27371;42.686;23.362;2023-02-22T01:13:42;164144.81;;;7.47;49.68
41688;BME280;27371;42.686;23.362;2023-02-22T01:16:11;164136.78;;;7.44;49.80
41688;BME280;27371;42.686;23.362;2023-02-22T01:18:36;164110.13;;;7.34;49.86
41688;BME280;27371;42.686;23.362;2023-02-22T01:21:03;164102.16;;;7.31;49.98
41688;BME280;27371;42.686;23.362;2023-02-22T01:23:29;164106.13;;;7.32;50.29
41688;BME280;27371;42.686;23.362;2023-02-22T01:25:55;164112.78;;;7.35;50.17
41688;BME280;27371;42.686;23.362;2023-02-22T01:28:21;164107.44;;;7.33;50.05
41688;BME280;27371;42.686;23.362;2023-02-22T01:30:47;164084.78;;;7.24;50.33
41688;BME280;27371;42.686;23.362;2023-02-22T01:33:13;164028.75;;;7.03;50.57
41688;BME280;27371;42.686;23.362;2023-02-22T01:35:40;163890.13;;;6.50;52.07
41688;BME280;27371;42.686;23.362;2023-02-22T01:38:07;163800.84;;;6.15;53.21
41688;BME280;27371;42.686;23.362;2023-02-22T01:40:36;163720.84;;;5.85;54.20
41688;BME280;27371;42.686;23.362;2023-02-22T01:43:25;163688.84;;;5.72;54.63
41688;BME280;27371;42.686;23.362;2023-02-22T01:48:45;163619.56;;;5.46;55.23
41688;BME280;27371;42.686;23.362;2023-02-22T01:51:33;163634.28;;;5.51;55.02
41688;BME280;27371;42.686;23.362;2023-02-22T01:54:15;163664.91;;;5.63;54.48
41688;BME280;27371;42.686;23.362;2023-02-22T01:56:55;163690.19;;;5.73;54.49
41688;BME280;27371;42.686;23.362;2023-02-22T01:59:25;163718.16;;;5.84;54.14
41688;BME280;27371;42.686;23.362;2023-02-22T02:01:51;163736.84;;;5.91;54.21
41688;BME280;27371;42.686;23.362;2023-02-22T02:04:21;163748.84;;;5.95;54.05
41688;BME280;27371;42.686;23.362;2023-02-22T02:06:56;163752.88;;;5.97;54.04
41688;BME280;27371;42.686;23.362;2023-02-22T02:09:25;163772.88;;;6.05;53.76
41688;BME280;27371;42.686;23.362;2023-02-22T02:11:54;163776.84;;;6.06;53.45
41688;BME280;27371;42.686;23.362;2023-02-22T02:14:25;163768.84;;;6.03;53.91
41688;BME280;27371;42.686;23.362;2023-02-22T02:16:51;163779.53;;;6.07;53.97
41688;BME280;27371;42.686;23.362;2023-02-22T02:32:55;163744.88;;;5.94;54.34
41688;BME280;27371;42.686;23.362;2023-02-22T02:35:55;163638.25;;;5.53;56.27
41688;BME280;27371;42.686;23.362;2023-02-22T02:41:38;163594.28;;;5.36;57.17
41688;BME280;27371;42.686;23.362;2023-02-22T02:44:16;163603.59;;;5.40;57.15
41688;BME280;27371;42.686;23.362;2023-02-22T02:47:02;163620.94;;;5.46;57.26
41688;BME280;27371;42.686;23.362;2023-02-22T02:49:53;163636.91;;;5.52;56.94
41688;BME280;27371;42.686;23.362;2023-02-22T02:52:22;163662.19;;;5.62;56.51
41688;BME280;27371;42.686;23.362;2023-02-22T02:54:49;163679.53;;;5.69;56.19
41688;BME280;27371;42.686;23.362;2023-02-22T02:57:15;163704.84;;;5.78;56.15
41688;BME280;27371;42.686;23.362;2023-02-22T02:59:41;163708.84;;;5.80;55.91
41688;BME280;27371;42.686;23.362;2023-02-22T03:08:07;163739.47;;;5.92;55.50
41688;BME280;27371;42.686;23.362;2023-02-22T03:11:17;163758.22;;;5.99;55.47
41688;BME280;27371;42.686;23.362;2023-02-22T03:16:36;163768.84;;;6.03;55.65
41688;BME280;27371;42.686;23.362;2023-02-22T03:24:58;163784.81;;;6.09;55.44
41688;BME280;27371;42.686;23.362;2023-02-22T03:27:47;163794.19;;;6.13;55.35
41688;BME280;27371;42.686;23.362;2023-02-22T03:30:21;163788.84;;;6.11;55.33
41688;BME280;27371;42.686;23.362;2023-02-22T03:32:51;163708.84;;;5.80;55.88
41688;BME280;27371;42.686;23.362;2023-02-22T03:35:21;163639.56;;;5.53;57.33
41688;BME280;27371;42.686;23.362;2023-02-22T03:37:53;163636.91;;;5.52;57.55
41688;BME280;27371;42.686;23.362;2023-02-22T03:40:27;163644.91;;;5.55;58.18
41688;BME280;27371;42.686;23.362;2023-02-22T03:43:02;163636.91;;;5.52;57.64
41688;BME280;27371;42.686;23.362;2023-02-22T03:45:30;163607.63;;;5.41;57.89
41688;BME280;27371;42.686;23.362;2023-02-22T03:48:05;163596.94;;;5.37;57.85
41688;BME280;27371;42.686;23.362;2023-02-22T03:50:35;163675.53;;;5.67;57.26
41688;BME280;27371;42.686;23.362;2023-02-22T03:53:01;163654.22;;;5.59;56.91
41688;BME280;27371;42.686;23.362;2023-02-22T03:55:27;163678.22;;;5.68;56.62
41688;BME280;27371;42.686;23.362;2023-02-22T03:57:58;163736.84;;;5.91;56.38
41688;BME280;27371;42.686;23.362;2023-02-22T04:00:27;163750.22;;;5.96;56.14
41688;BME280;27371;42.686;23.362;2023-02-22T04:02:53;163751.53;;;5.96;56.15
41688;BME280;27371;42.686;23.362;2023-02-22T04:05:19;163731.50;;;5.89;56.11
41688;BME280;27371;42.686;23.362;2023-02-22T04:07:44;163722.19;;;5.85;56.36
41688;BME280;27371;42.686;23.362;2023-02-22T04:10:11;163678.22;;;5.68;56.57
41688;BME280;27371;42.686;23.362;2023-02-22T04:12:37;163646.22;;;5.56;56.76
41688;BME280;27371;42.686;23.362;2023-02-22T04:15:05;163624.91;;;5.48;56.94
41688;BME280;27371;42.686;23.362;2023-02-22T04:17:31;163612.97;;;5.43;57.13
41688;BME280;27371;42.686;23.362;2023-02-22T04:19:57;163591.63;;;5.35;57.40
41688;BME280;27371;42.686;23.362;2023-02-22T04:22:23;163578.31;;;5.30;57.34
41688;BME280;27371;42.686;23.362;2023-02-22T04:24:48;163554.31;;;5.21;57.36
41688;BME280;27371;42.686;23.362;2023-02-22T04:27:14;163533.00;;;5.12;57.40
41688;BME280;27371;42.686;23.362;2023-02-22T04:29:40;163425.16;;;4.71;57.28
41688;BME280;27371;42.686;23.362;2023-02-22T04:32:06;163320.00;;;4.31;59.35
41688;BME280;27371;42.686;23.362;2023-02-22T04:34:31;163264.09;;;4.09;60.87
41688;BME280;27371;42.686;23.362;2023-02-22T04:36:57;163232.13;;;3.97;61.94
41688;BME280;27371;42.686;23.362;2023-02-22T04:39:23;163213.53;;;3.90;61.73
41688;BME280;27371;42.686;23.362;2023-02-22T04:41:48;163184.28;;;3.78;61.71
41688;BME280;27371;42.686;23.362;2023-02-22T04:44:14;163186.91;;;3.79;61.76
41688;BME280;27371;42.686;23.362;2023-02-22T04:46:39;163186.91;;;3.79;61.82
41688;BME280;27371;42.686;23.362;2023-02-22T04:49:05;163208.22;;;3.88;61.56
41688;BME280;27371;42.686;23.362;2023-02-22T04:51:31;163214.88;;;3.90;61.20
41688;BME280;27371;42.686;23.362;2023-02-22T04:53:56;163249.47;;;4.04;61.02
41688;BME280;27371;42.686;23.362;2023-02-22T04:56:22;163213.53;;;3.90;61.21
41688;BME280;27371;42.686;23.362;2023-02-22T04:58:48;163186.91;;;3.79;61.22
41688;BME280;27371;42.686;23.362;2023-02-22T05:01:14;163204.25;;;3.86;61.27
41688;BME280;27371;42.686;23.362;2023-02-22T05:03:41;163230.81;;;3.96;61.06
41688;BME280;27371;42.686;23.362;2023-02-22T05:06:07;163241.50;;;4.00;61.13
41688;BME280;27371;42.686;23.362;2023-02-22T05:08:33;163208.22;;;3.88;60.77
41688;BME280;27371;42.686;23.362;2023-02-22T05:10:58;163261.47;;;4.08;60.80
41688;BME280;27371;42.686;23.362;2023-02-22T05:13:24;163305.38;;;4.25;60.64
41688;BME280;27371;42.686;23.362;2023-02-22T05:15:51;163394.53;;;4.59;64.30
41688;BME280;27371;42.686;23.362;2023-02-22T05:18:16;163427.84;;;4.72;62.75
41688;BME280;27371;42.686;23.362;2023-02-22T05:20:42;163421.19;;;4.69;61.50
41688;BME280;27371;42.686;23.362;2023-02-22T05:23:07;163430.47;;;4.73;60.45
41688;BME280;27371;42.686;23.362;2023-02-22T05:25:33;163385.22;;;4.56;60.23
41688;BME280;27371;42.686;23.362;2023-02-22T05:28:02;163402.53;;;4.62;59.70
41688;BME280;27371;42.686;23.362;2023-02-22T05:30:30;163393.22;;;4.59;59.70
41688;BME280;27371;42.686;23.362;2023-02-22T05:32:56;163361.25;;;4.46;58.42
41688;BME280;27371;42.686;23.362;2023-02-22T05:35:23;163274.72;;;4.13;59.62
41688;BME280;27371;42.686;23.362;2023-02-22T05:37:49;163197.59;;;3.84;61.15
41688;BME280;27371;42.686;23.362;2023-02-22T05:40:17;163249.47;;;4.04;62.07
41688;BME280;27371;42.686;23.362;2023-02-22T05:42:43;163264.09;;;4.09;62.02
41688;BME280;27371;42.686;23.362;2023-02-22T05:45:11;163293.38;;;4.20;61.66
41688;BME280;27371;42.686;23.362;2023-02-22T05:47:37;163314.69;;;4.29;61.47
41688;BME280;27371;42.686;23.362;2023-02-22T05:50:03;163341.31;;;4.39;61.16
41688;BME280;27371;42.686;23.362;2023-02-22T05:52:29;163330.63;;;4.35;61.11
41688;BME280;27371;42.686;23.362;2023-02-22T05:54:54;163379.91;;;4.54;60.76
41688;BME280;27371;42.686;23.362;2023-02-22T05:57:20;163423.81;;;4.71;60.68
41688;BME280;27371;42.686;23.362;2023-02-22T05:59:45;163466.44;;;4.87;60.00
41688;BME280;27371;42.686;23.362;2023-02-22T06:02:11;163531.69;;;5.12;59.32
41688;BME280;27371;42.686;23.362;2023-02-22T06:04:36;163591.63;;;5.35;58.68
41688;BME280;27371;42.686;23.362;2023-02-22T06:07:02;163628.94;;;5.49;58.28
41688;BME280;27371;42.686;23.362;2023-02-22T06:09:27;163648.91;;;5.57;57.74
41688;BME280;27371;42.686;23.362;2023-02-22T06:11:53;163699.53;;;5.76;56.99
41688;BME280;27371;42.686;23.362;2023-02-22T06:14:19;163772.88;;;6.05;56.36
41688;BME280;27371;42.686;23.362;2023-02-22T06:16:51;163812.81;;;6.20;55.77
41688;BME280;27371;42.686;23.362;2023-02-22T06:19:17;163827.47;;;6.25;55.59
41688;BME280;27371;42.686;23.362;2023-02-22T06:21:56;163834.13;;;6.28;55.74
41688;BME280;27371;42.686;23.362;2023-02-22T06:24:24;163868.81;;;6.41;55.65
41688;BME280;27371;42.686;23.362;2023-02-22T06:26:57;163918.13;;;6.60;55.11
41688;BME280;27371;42.686;23.362;2023-02-22T06:29:24;163984.78;;;6.86;54.44
41688;BME280;27371;42.686;23.362;2023-02-22T06:31:50;164048.78;;;7.10;53.95
41688;BME280;27371;42.686;23.362;2023-02-22T06:34:15;164122.09;;;7.39;53.33
41688;BME280;27371;42.686;23.362;2023-02-22T06:36:41;164168.81;;;7.56;52.57
41688;BME280;27371;42.686;23.362;2023-02-22T06:39:07;164211.50;;;7.73;52.04
41688;BME280;27371;42.686;23.362;2023-02-22T06:41:39;164246.19;;;7.86;51.39
41688;BME280;27371;42.686;23.362;2023-02-22T06:44:05;164298.22;;;8.06;51.31
41688;BME280;27371;42.686;23.362;2023-02-22T06:46:31;164318.25;;;8.14;50.62
41688;BME280;27371;42.686;23.362;2023-02-22T06:48:56;164378.28;;;8.37;50.78
41688;BME280;27371;42.686;23.362;2023-02-22T06:51:27;164446.41;;;8.63;49.93
41688;BME280;27371;42.686;23.362;2023-02-22T06:53:53;164405.03;;;8.47;49.96
41688;BME280;27371;42.686;23.362;2023-02-22T06:56:19;164378.28;;;8.37;50.12
41688;BME280;27371;42.686;23.362;2023-02-22T06:58:44;164393.00;;;8.42;50.38
41688;BME280;27371;42.686;23.362;2023-02-22T07:01:10;164387.66;;;8.40;49.86
41688;BME280;27371;42.686;23.362;2023-02-22T07:03:36;164421.03;;;8.53;49.54
41688;BME280;27371;42.686;23.362;2023-02-22T07:06:01;164489.09;;;8.79;49.50
41688;BME280;27371;42.686;23.362;2023-02-22T07:08:28;164561.19;;;9.07;48.73
41688;BME280;27371;42.686;23.362;2023-02-22T07:10:53;164587.88;;;9.17;47.81
41688;BME280;27371;42.686;23.362;2023-02-22T07:13:19;164648.00;;;9.40;47.74
41688;BME280;27371;42.686;23.362;2023-02-22T07:15:45;164750.84;;;9.79;46.83
41688;BME280;27371;42.686;23.362;2023-02-22T07:18:10;164817.59;;;10.05;45.78
41688;BME280;27371;42.686;23.362;2023-02-22T07:20:36;164821.63;;;10.07;44.70
41688;BME280;27371;42.686;23.362;2023-02-22T07:23:02;164888.47;;;10.32;44.27
41688;BME280;27371;42.686;23.362;2023-02-22T07:25:27;164889.81;;;10.33;44.12
41688;BME280;27371;42.686;23.362;2023-02-22T07:27:53;164852.34;;;10.18;43.95
41688;BME280;27371;42.686;23.362;2023-02-22T07:30:25;164814.97;;;10.04;44.60
41688;BME280;27371;42.686;23.362;2023-02-22T07:32:55;164852.34;;;10.18;44.48
41688;BME280;27371;42.686;23.362;2023-02-22T07:35:30;164897.81;;;10.36;43.92
41688;BME280;27371;42.686;23.362;2023-02-22T07:37:56;164945.94;;;10.54;43.78
41688;BME280;27371;42.686;23.362;2023-02-22T07:40:23;165047.50;;;10.93;42.54
41688;BME280;27371;42.686;23.362;2023-02-22T07:43:04;165086.25;;;11.08;42.17
41688;BME280;27371;42.686;23.362;2023-02-22T07:45:32;165064.84;;;11.00;41.99
41688;BME280;27371;42.686;23.362;2023-02-22T07:47:59;165146.44;;;11.31;41.69
41688;BME280;27371;42.686;23.362;2023-02-22T07:50:26;165215.94;;;11.57;41.35
41688;BME280;27371;42.686;23.362;2023-02-22T07:52:53;165175.84;;;11.42;41.04
41688;BME280;27371;42.686;23.362;2023-02-22T07:55:22;165123.72;;;11.22;41.54
41688;BME280;27371;42.686;23.362;2023-02-22T07:57:49;165134.38;;;11.26;41.57
41688;BME280;27371;42.686;23.362;2023-02-22T08:00:21;165177.16;;;11.43;41.27
41688;BME280;27371;42.686;23.362;2023-02-22T08:02:47;165211.94;;;11.56;41.01
41688;BME280;27371;42.686;23.362;2023-02-22T08:05:14;165244.00;;;11.68;40.86
41688;BME280;27371;42.686;23.362;2023-02-22T08:07:39;165302.91;;;11.91;40.46
41688;BME280;27371;42.686;23.362;2023-02-22T08:10:06;165302.91;;;11.91;40.16
41688;BME280;27371;42.686;23.362;2023-02-22T08:12:33;165320.31;;;11.97;40.07
41688;BME280;27371;42.686;23.362;2023-02-22T08:14:59;165322.97;;;11.98;40.28
41688;BME280;27371;42.686;23.362;2023-02-22T08:17:25;165360.41;;;12.13;40.27
41688;BME280;27371;42.686;23.362;2023-02-22T08:19:50;165427.31;;;12.38;39.62
41688;BME280;27371;42.686;23.362;2023-02-22T08:22:16;165451.38;;;12.47;39.23
41688;BME280;27371;42.686;23.362;2023-02-22T08:24:41;165464.78;;;12.53;39.24
41688;BME280;27371;42.686;23.362;2023-02-22T08:27:07;165482.16;;;12.59;39.25
41688;BME280;27371;42.686;23.362;2023-02-22T08:29:32;165523.63;;;12.75;38.95
41688;BME280;27371;42.686;23.362;2023-02-22T08:31:59;165546.38;;;12.84;38.57
41688;BME280;27371;42.686;23.362;2023-02-22T08:34:25;165578.53;;;12.96;38.55
41688;BME280;27371;42.686;23.362;2023-02-22T08:36:51;165585.22;;;12.99;38.41
41688;BME280;27371;42.686;23.362;2023-02-22T08:39:16;165641.38;;;13.20;38.00
41688;BME280;27371;42.686;23.362;2023-02-22T08:41:42;165757.94;;;13.65;37.24
41688;BME280;27371;42.686;23.362;2023-02-22T08:44:07;165858.31;;;14.03;36.41
41688;BME280;27371;42.686;23.362;2023-02-22T08:46:33;165844.97;;;13.98;36.71
41688;BME280;27371;42.686;23.362;2023-02-22T08:48:58;165859.69;;;14.03;36.47
41688;BME280;27371;42.686;23.362;2023-02-22T08:51:25;165869.03;;;14.07;36.47
41688;BME280;27371;42.686;23.362;2023-02-22T08:53:51;165940.03;;;14.34;36.06
41688;BME280;27371;42.686;23.362;2023-02-22T08:56:17;166029.78;;;14.68;35.58
41688;BME280;27371;42.686;23.362;2023-02-22T08:58:43;166064.63;;;14.82;35.30
41688;BME280;27371;42.686;23.362;2023-02-22T09:01:09;166091.44;;;14.92;35.19
41688;BME280;27371;42.686;23.362;2023-02-22T09:03:34;166061.97;;;14.81;35.28
41688;BME280;27371;42.686;23.362;2023-02-22T09:06:00;166147.72;;;15.13;34.93
41688;BME280;27371;42.686;23.362;2023-02-22T09:08:25;166155.75;;;15.17;35.03
41688;BME280;27371;42.686;23.362;2023-02-22T09:10:51;166174.47;;;15.24;34.81
41688;BME280;27371;42.686;23.362;2023-02-22T09:13:16;166209.34;;;15.37;34.60
41688;BME280;27371;42.686;23.362;2023-02-22T09:15:42;166260.25;;;15.56;34.44
41688;BME280;27371;42.686;23.362;2023-02-22T09:18:10;166305.84;;;15.74;34.44
41688;BME280;27371;42.686;23.362;2023-02-22T09:20:38;166335.38;;;15.85;34.03
41688;BME280;27371;42.686;23.362;2023-02-22T09:23:05;166352.78;;;15.92;34.36
41688;BME280;27371;42.686;23.362;2023-02-22T09:25:31;166372.91;;;15.99;33.96
41688;BME280;27371;42.686;23.362;2023-02-22T09:27:58;166395.69;;;16.08;33.91
41688;BME280;27371;42.686;23.362;2023-02-22T09:30:25;166427.84;;;16.20;33.69
41688;BME280;27371;42.686;23.362;2023-02-22T09:32:53;166445.31;;;16.27;33.66
41688;BME280;27371;42.686;23.362;2023-02-22T09:35:19;166481.50;;;16.41;33.39
41688;BME280;27371;42.686;23.362;2023-02-22T09:37:54;166505.63;;;16.50;33.36
41688;BME280;27371;42.686;23.362;2023-02-22T09:40:20;166490.88;;;16.44;33.35
41688;BME280;27371;42.686;23.362;2023-02-22T09:54:26;166560.63;;;16.71;32.31
41688;BME280;27371;42.686;23.362;2023-02-22T09:56:59;166570.00;;;16.75;32.15
41688;BME280;27371;42.686;23.362;2023-02-22T09:59:31;166587.47;;;16.81;32.25
41688;BME280;27371;42.686;23.362;2023-02-22T10:02:25;166598.22;;;16.85;31.85
41688;BME280;27371;42.686;23.362;2023-02-22T10:05:26;166540.50;;;16.63;32.28
41688;BME280;27371;42.686;23.362;2023-02-22T10:08:08;166519.03;;;16.55;32.61
41688;BME280;27371;42.686;23.362;2023-02-22T10:10:38;166533.78;;;16.61;32.68
41688;BME280;27371;42.686;23.362;2023-02-22T10:19:23;166584.78;;;16.80;31.67
41688;BME280;27371;42.686;23.362;2023-02-22T10:22:05;166595.53;;;16.84;31.42
41688;BME280;27371;42.686;23.362;2023-02-22T10:24:49;166600.88;;;16.86;31.59
41688;BME280;27371;42.686;23.362;2023-02-22T10:27:33;166600.88;;;16.86;31.66
41688;BME280;27371;42.686;23.362;2023-02-22T10:30:07;166595.53;;;16.84;31.69
41688;BME280;27371;42.686;23.362;2023-02-22T10:32:44;166567.31;;;16.74;31.91
41688;BME280;27371;42.686;23.362;2023-02-22T10:35:28;166572.66;;;16.76;32.11
41688;BME280;27371;42.686;23.362;2023-02-22T10:38:21;166555.25;;;16.69;32.76
41688;BME280;27371;42.686;23.362;2023-02-22T10:40:57;166548.53;;;16.66;32.69
41688;BME280;27371;42.686;23.362;2023-02-22T10:43:25;166537.81;;;16.62;32.72
41688;BME280;27371;42.686;23.362;2023-02-22T10:45:57;166531.13;;;16.60;32.98
41688;BME280;27371;42.686;23.362;2023-02-22T10:48:27;166489.53;;;16.44;32.80
41688;BME280;27371;42.686;23.362;2023-02-22T10:51:00;166517.69;;;16.55;32.99
41688;BME280;27371;42.686;23.362;2023-02-22T10:53:27;166508.28;;;16.51;32.74
41688;BME280;27371;42.686;23.362;2023-02-22T10:56:20;166505.63;;;16.50;32.50
41688;BME280;27371;42.686;23.362;2023-02-22T11:01:35;166520.38;;;16.56;32.40
41688;BME280;27371;42.686;23.362;2023-02-22T11:06:31;166464.03;;;16.34;32.32
41688;BME280;27371;42.686;23.362;2023-02-22T11:09:14;166489.53;;;16.44;32.92
41688;BME280;27371;42.686;23.362;2023-02-22T11:11:46;166407.78;;;16.13;33.10
41688;BME280;27371;42.686;23.362;2023-02-22T11:14:25;166387.66;;;16.05;33.47
41688;BME280;27371;42.686;23.362;2023-02-22T11:16:53;166383.63;;;16.03;33.66
41688;BME280;27371;42.686;23.362;2023-02-22T11:19:26;166391.66;;;16.07;33.88
41688;BME280;27371;42.686;23.362;2023-02-22T11:24:29;166423.84;;;16.19;33.17
41688;BME280;27371;42.686;23.362;2023-02-22T11:26:59;166441.25;;;16.25;33.26
41688;BME280;27371;42.686;23.362;2023-02-22T11:29:34;166456.00;;;16.31;33.38
41688;BME280;27371;42.686;23.362;2023-02-22T11:32:11;166461.38;;;16.33;33.22
41688;BME280;27371;42.686;23.362;2023-02-22T11:34:40;166478.78;;;16.40;32.95
41688;BME280;27371;42.686;23.362;2023-02-22T11:40:02;166488.22;;;16.43;32.43
41688;BME280;27371;42.686;23.362;2023-02-22T11:42:28;166488.22;;;16.43;32.30
41688;BME280;27371;42.686;23.362;2023-02-22T11:45:09;166498.91;;;16.47;32.04
41688;BME280;27371;42.686;23.362;2023-02-22T11:47:58;166492.19;;;16.45;32.33
41688;BME280;27371;42.686;23.362;2023-02-22T11:50:31;166496.25;;;16.46;32.06
41688;BME280;27371;42.686;23.362;2023-02-22T11:56:17;166524.41;;;16.57;32.24
41688;BME280;27371;42.686;23.362;2023-02-22T12:09:18;166584.78;;;16.80;31.18
41688;BME280;27371;42.686;23.362;2023-02-22T12:12:11;166580.75;;;16.79;31.37
41688;BME280;27371;42.686;23.362;2023-02-22T12:20:08;166447.97;;;16.28;32.29
41688;BME280;27371;42.686;23.362;2023-02-22T12:22:51;166411.78;;;16.14;32.48
41688;BME280;27371;42.686;23.362;2023-02-22T12:25:24;166456.00;;;16.31;32.08
41688;BME280;27371;42.686;23.362;2023-02-22T12:27:54;166513.66;;;16.53;31.03
41688;BME280;27371;42.686;23.362;2023-02-22T12:32:52;166621.00;;;16.94;30.96
41688;BME280;27371;42.686;23.362;2023-02-22T12:35:33;166637.09;;;17.00;30.51
41688;BME280;27371;42.686;23.362;2023-02-22T12:41:38;166661.25;;;17.09;30.09
41688;BME280;27371;42.686;23.362;2023-02-22T12:44:27;166670.63;;;17.13;30.38
41688;BME280;27371;42.686;23.362;2023-02-22T12:46:51;166688.03;;;17.20;30.25
41688;BME280;27371;42.686;23.362;2023-02-22T13:00:29;166728.31;;;17.35;29.31
41688;BME280;27371;42.686;23.362;2023-02-22T13:03:21;166748.44;;;17.43;29.30
41688;BME280;27371;42.686;23.362;2023-02-22T13:05:53;166772.56;;;17.52;28.81
41688;BME280;27371;42.686;23.362;2023-02-22T13:09:02;166768.53;;;17.50;28.94
41688;BME280;27371;42.686;23.362;2023-02-22T13:16:47;166804.75;;;17.64;28.12
41688;BME280;27371;42.686;23.362;2023-02-22T13:21:57;166759.16;;;17.47;28.07
41688;BME280;27371;42.686;23.362;2023-02-22T13:24:38;166696.09;;;17.23;28.12
41688;BME280;27371;42.686;23.362;2023-02-22T13:27:15;166682.72;;;17.18;29.05
41688;BME280;27371;42.686;23.362;2023-02-22T13:29:46;166692.09;;;17.21;29.28
41688;BME280;27371;42.686;23.362;2023-02-22T13:54:10;166867.88;;;17.88;27.97
41688;BME280;27371;42.686;23.362;2023-02-22T13:56:42;166846.41;;;17.80;28.03
41688;BME280;27371;42.686;23.362;2023-02-22T14:01:48;166838.31;;;17.77;28.70
41688;BME280;27371;42.686;23.362;2023-02-22T14:06:55;166850.47;;;17.82;28.23
41688;BME280;27371;42.686;23.362;2023-02-22T14:09:47;166847.75;;;17.80;28.17
41688;BME280;27371;42.686;23.362;2023-02-22T14:15:14;166839.66;;;17.77;28.15
41688;BME280;27371;42.686;23.362;2023-02-22T14:17:45;166826.22;;;17.72;28.21
41688;BME280;27371;42.686;23.362;2023-02-22T14:22:39;166780.63;;;17.55;28.83
41688;BME280;27371;42.686;23.362;2023-02-22T14:27:54;166792.72;;;17.59;28.94
41688;BME280;27371;42.686;23.362;2023-02-22T14:30:37;166783.28;;;17.56;29.02
41688;BME280;27371;42.686;23.362;2023-02-22T14:36:26;166621.00;;;16.94;29.13
41688;BME280;27371;42.686;23.362;2023-02-22T14:38:57;166586.13;;;16.81;29.29
41688;BME280;27371;42.686;23.362;2023-02-22T14:41:28;166588.84;;;16.82;29.68
41688;BME280;27371;42.686;23.362;2023-02-22T14:43:55;166611.63;;;16.90;29.34
41688;BME280;27371;42.686;23.362;2023-02-22T14:46:25;166634.41;;;16.99;29.30
41688;BME280;27371;42.686;23.362;2023-02-22T14:48:58;166638.41;;;17.01;29.18
41688;BME280;27371;42.686;23.362;2023-02-22T14:51:32;166642.47;;;17.02;29.17
41688;BME280;27371;42.686;23.362;2023-02-22T14:54:30;166649.16;;;17.05;28.56
41688;BME280;27371;42.686;23.362;2023-02-22T14:57:06;166662.59;;;17.10;28.57
41688;BME280;27371;42.686;23.362;2023-02-22T15:03:00;166641.13;;;17.02;28.74
41688;BME280;27371;42.686;23.362;2023-02-22T15:05:28;166641.13;;;17.02;28.42
41688;BME280;27371;42.686;23.362;2023-02-22T15:08:00;166608.91;;;16.89;28.67
41688;BME280;27371;42.686;23.362;2023-02-22T15:10:30;166625.03;;;16.96;28.89
41688;BME280;27371;42.686;23.362;2023-02-22T15:13:05;166600.88;;;16.86;29.27
41688;BME280;27371;42.686;23.362;2023-02-22T15:15:42;166574.03;;;16.76;29.41
41688;BME280;27371;42.686;23.362;2023-02-22T15:21:13;166560.63;;;16.71;30.41
41688;BME280;27371;42.686;23.362;2023-02-22T15:24:01;166543.16;;;16.64;30.76
41688;BME280;27371;42.686;23.362;2023-02-22T15:29:32;166505.63;;;16.50;31.37
41688;BME280;27371;42.686;23.362;2023-02-22T15:31:59;166476.13;;;16.39;31.79
41688;BME280;27371;42.686;23.362;2023-02-22T15:34:30;166466.75;;;16.35;32.30
41688;BME280;27371;42.686;23.362;2023-02-22T15:37:01;166446.63;;;16.28;32.66